sensor_id;sensor_type;location;lat;lon;timestamp;pressure;altitude;pressure_sealevel;temperature;humidity
8051;BME280;4068;42.158;24.732;2023-04-29T00:00:29;99842.22;;;6.70;100.00
8051;BME280;4068;42.158;24.732;2023-04-29T00:02:54;99845.13;;;6.65;100.00
8051;BME280;4068;42.158;24.732;2023-04-29T00:05:20;99847.09;;;6.62;100.00
8051;BME280;4068;42.158;24.732;2023-04-29T00:07:45;99855.09;;;6.60;100.00
8051;BME280;4068;42.158;24.732;2023-04-29T00:10:11;99841.72;;;6.49;100.00
8051;BME280;4068;42.158;24.732;2023-04-29T00:12:39;99859.97;;;6.52;100.00
8051;BME280;4068;42.158;24.732;2023-04-29T00:15:06;99848.00;;;6.46;100.00
8051;BME280;4068;42.158;24.732;2023-04-29T00:17:33;99845.84;;;6.38;100.00
8051;BME280;4068;42.158;24.732;2023-04-29T00:19:58;99851.63;;;6.29;100.00
8051;BME280;4068;42.158;24.732;2023-04-29T00:22:24;99851.19;;;6.21;100.00
8051;BME280;4068;42.158;24.732;2023-04-29T00:24:49;99828.22;;;6.09;100.00
8051;BME280;4068;42.158;24.732;2023-04-29T00:27:15;99828.31;;;6.07;100.00
8051;BME280;4068;42.158;24.732;2023-04-29T00:29:42;99845.59;;;6.11;100.00
8051;BME280;4068;42.158;24.732;2023-04-29T00:32:07;99842.00;;;5.98;100.00
8051;BME280;4068;42.158;24.732;2023-04-29T00:34:33;99855.38;;;5.93;100.00
8051;BME280;4068;42.158;24.732;2023-04-29T00:36:58;99858.09;;;5.92;100.00
8051;BME280;4068;42.158;24.732;2023-04-29T00:39:24;99821.78;;;5.66;100.00
8051;BME280;4068;42.158;24.732;2023-04-29T00:41:50;99852.50;;;5.82;100.00
8051;BME280;4068;42.158;24.732;2023-04-29T00:44:16;99829.56;;;5.68;100.00
8051;BME280;4068;42.158;24.732;2023-04-29T00:46:41;99862.09;;;5.83;100.00
8051;BME280;4068;42.158;24.732;2023-04-29T00:49:08;99858.53;;;5.84;100.00
8051;BME280;4068;42.158;24.732;2023-04-29T00:51:35;99849.34;;;5.75;100.00
8051;BME280;4068;42.158;24.732;2023-04-29T00:54:03;99827.69;;;5.70;100.00
8051;BME280;4068;42.158;24.732;2023-04-29T00:56:30;99854.59;;;5.91;100.00
8051;BME280;4068;42.158;24.732;2023-04-29T00:58:57;99841.44;;;5.91;100.00
8051;BME280;4068;42.158;24.732;2023-04-29T01:01:22;99850.31;;;5.90;100.00
8051;BME280;4068;42.158;24.732;2023-04-29T01:03:49;99829.09;;;5.77;100.00
8051;BME280;4068;42.158;24.732;2023-04-29T01:11:57;99858.19;;;5.74;100.00
8051;BME280;4068;42.158;24.732;2023-04-29T01:14:29;99841.63;;;5.56;100.00
8051;BME280;4068;42.158;24.732;2023-04-29T01:16:59;99849.28;;;5.61;100.00
8051;BME280;4068;42.158;24.732;2023-04-29T01:19:51;99862.16;;;5.65;100.00
8051;BME280;4068;42.158;24.732;2023-04-29T01:22:17;99859.09;;;5.57;100.00
8051;BME280;4068;42.158;24.732;2023-04-29T01:24:44;99850.19;;;5.60;100.00
8051;BME280;4068;42.158;24.732;2023-04-29T01:27:23;99844.59;;;5.50;100.00
8051;BME280;4068;42.158;24.732;2023-04-29T01:30:09;99824.41;;;5.34;100.00
8051;BME280;4068;42.158;24.732;2023-04-29T01:32:59;99847.22;;;5.34;100.00
8051;BME280;4068;42.158;24.732;2023-04-29T01:35:33;99845.25;;;5.22;100.00
8051;BME280;4068;42.158;24.732;2023-04-29T01:38:16;99831.56;;;5.15;100.00
8051;BME280;4068;42.158;24.732;2023-04-29T01:40:57;99808.63;;;4.85;100.00
8051;BME280;4068;42.158;24.732;2023-04-29T01:43:27;99830.59;;;5.00;100.00
8051;BME280;4068;42.158;24.732;2023-04-29T01:45:55;99836.47;;;5.05;100.00
8051;BME280;4068;42.158;24.732;2023-04-29T01:48:22;99836.13;;;5.11;100.00
8051;BME280;4068;42.158;24.732;2023-04-29T01:50:48;99828.94;;;5.15;100.00
8051;BME280;4068;42.158;24.732;2023-04-29T01:53:13;99822.81;;;5.14;100.00
8051;BME280;4068;42.158;24.732;2023-04-29T01:55:39;99827.25;;;5.14;100.00
8051;BME280;4068;42.158;24.732;2023-04-29T01:58:05;99822.06;;;5.12;100.00
8051;BME280;4068;42.158;24.732;2023-04-29T02:00:31;99824.00;;;5.09;100.00
8051;BME280;4068;42.158;24.732;2023-04-29T02:02:57;99798.63;;;4.92;100.00
8051;BME280;4068;42.158;24.732;2023-04-29T02:05:22;99834.84;;;5.03;100.00
8051;BME280;4068;42.158;24.732;2023-04-29T02:07:48;99825.50;;;4.97;100.00
8051;BME280;4068;42.158;24.732;2023-04-29T02:10:13;99824.75;;;4.95;100.00
8051;BME280;4068;42.158;24.732;2023-04-29T02:12:39;99825.13;;;4.87;100.00
8051;BME280;4068;42.158;24.732;2023-04-29T02:15:05;99824.22;;;4.88;100.00
8051;BME280;4068;42.158;24.732;2023-04-29T02:17:32;99825.91;;;4.89;100.00
8051;BME280;4068;42.158;24.732;2023-04-29T02:19:58;99808.78;;;4.82;100.00
8051;BME280;4068;42.158;24.732;2023-04-29T02:22:23;99830.84;;;4.95;100.00
8051;BME280;4068;42.158;24.732;2023-04-29T02:24:48;99827.28;;;4.96;100.00
8051;BME280;4068;42.158;24.732;2023-04-29T02:27:14;99834.31;;;4.96;100.00
8051;BME280;4068;42.158;24.732;2023-04-29T02:29:39;99831.00;;;4.92;100.00
8051;BME280;4068;42.158;24.732;2023-04-29T02:32:05;99823.88;;;4.94;100.00
8051;BME280;4068;42.158;24.732;2023-04-29T02:34:31;99827.75;;;4.87;100.00
8051;BME280;4068;42.158;24.732;2023-04-29T02:36:56;99792.97;;;4.66;100.00
8051;BME280;4068;42.158;24.732;2023-04-29T02:39:22;99815.56;;;4.86;100.00
8051;BME280;4068;42.158;24.732;2023-04-29T02:41:47;99783.06;;;5.05;100.00
8051;BME280;4068;42.158;24.732;2023-04-29T02:44:13;99818.72;;;5.26;100.00
8051;BME280;4068;42.158;24.732;2023-04-29T02:46:38;99825.06;;;5.22;100.00
8051;BME280;4068;42.158;24.732;2023-04-29T02:49:05;99825.34;;;5.33;100.00
8051;BME280;4068;42.158;24.732;2023-04-29T02:51:31;99827.13;;;5.49;100.00
8051;BME280;4068;42.158;24.732;2023-04-29T02:53:57;99839.84;;;5.73;100.00
8051;BME280;4068;42.158;24.732;2023-04-29T02:56:22;99831.50;;;5.96;100.00
8051;BME280;4068;42.158;24.732;2023-04-29T02:58:48;99836.72;;;5.98;100.00
8051;BME280;4068;42.158;24.732;2023-04-29T03:01:13;99842.22;;;5.93;100.00
8051;BME280;4068;42.158;24.732;2023-04-29T03:03:39;99839.81;;;5.88;100.00
8051;BME280;4068;42.158;24.732;2023-04-29T03:06:04;99835.28;;;5.76;100.00
8051;BME280;4068;42.158;24.732;2023-04-29T03:08:30;99835.78;;;5.99;100.00
8051;BME280;4068;42.158;24.732;2023-04-29T03:10:55;99827.31;;;6.24;100.00
8051;BME280;4068;42.158;24.732;2023-04-29T03:13:20;99853.78;;;6.37;100.00
8051;BME280;4068;42.158;24.732;2023-04-29T03:15:46;99850.09;;;6.25;100.00
8051;BME280;4068;42.158;24.732;2023-04-29T03:18:11;99820.00;;;6.29;100.00
8051;BME280;4068;42.158;24.732;2023-04-29T03:20:37;99843.44;;;6.34;100.00
8051;BME280;4068;42.158;24.732;2023-04-29T03:23:02;99844.25;;;6.20;100.00
8051;BME280;4068;42.158;24.732;2023-04-29T03:25:28;99868.25;;;6.46;100.00
8051;BME280;4068;42.158;24.732;2023-04-29T03:27:54;99860.34;;;6.46;100.00
8051;BME280;4068;42.158;24.732;2023-04-29T03:30:19;99850.44;;;6.19;100.00
8051;BME280;4068;42.158;24.732;2023-04-29T03:32:45;99835.06;;;5.95;100.00
8051;BME280;4068;42.158;24.732;2023-04-29T03:35:10;99861.03;;;6.03;100.00
8051;BME280;4068;42.158;24.732;2023-04-29T03:37:37;99858.03;;;5.93;100.00
8051;BME280;4068;42.158;24.732;2023-04-29T03:40:03;99874.19;;;6.03;100.00
8051;BME280;4068;42.158;24.732;2023-04-29T03:42:29;99870.50;;;6.05;100.00
8051;BME280;4068;42.158;24.732;2023-04-29T03:44:54;99845.78;;;5.92;100.00
8051;BME280;4068;42.158;24.732;2023-04-29T03:47:20;99871.78;;;6.14;100.00
8051;BME280;4068;42.158;24.732;2023-04-29T03:49:45;99883.72;;;6.36;100.00
8051;BME280;4068;42.158;24.732;2023-04-29T03:52:10;99888.91;;;6.37;100.00
8051;BME280;4068;42.158;24.732;2023-04-29T03:54:36;99883.00;;;6.48;100.00
8051;BME280;4068;42.158;24.732;2023-04-29T03:57:02;99888.88;;;6.53;100.00
8051;BME280;4068;42.158;24.732;2023-04-29T03:59:28;99891.81;;;6.63;100.00
8051;BME280;4068;42.158;24.732;2023-04-29T04:01:54;99899.66;;;6.79;100.00
8051;BME280;4068;42.158;24.732;2023-04-29T04:04:20;99895.00;;;6.99;100.00
8051;BME280;4068;42.158;24.732;2023-04-29T04:06:46;99891.59;;;7.11;100.00
8051;BME280;4068;42.158;24.732;2023-04-29T04:09:16;99869.13;;;7.20;100.00
8051;BME280;4068;42.158;24.732;2023-04-29T04:11:41;99905.28;;;7.47;100.00
8051;BME280;4068;42.158;24.732;2023-04-29T04:14:07;99899.94;;;7.48;100.00
8051;BME280;4068;42.158;24.732;2023-04-29T04:16:32;99902.38;;;7.51;100.00
8051;BME280;4068;42.158;24.732;2023-04-29T04:18:57;99861.94;;;7.22;100.00
8051;BME280;4068;42.158;24.732;2023-04-29T04:21:23;99878.53;;;7.38;100.00
8051;BME280;4068;42.158;24.732;2023-04-29T04:23:49;99887.97;;;7.42;100.00
8051;BME280;4068;42.158;24.732;2023-04-29T04:26:15;99871.75;;;7.34;100.00
8051;BME280;4068;42.158;24.732;2023-04-29T04:28:41;99904.22;;;7.64;100.00
8051;BME280;4068;42.158;24.732;2023-04-29T04:31:06;99902.97;;;7.84;100.00
8051;BME280;4068;42.158;24.732;2023-04-29T04:33:32;99901.16;;;7.99;100.00
8051;BME280;4068;42.158;24.732;2023-04-29T04:35:58;99896.81;;;8.25;100.00
8051;BME280;4068;42.158;24.732;2023-04-29T04:38:24;99893.19;;;8.40;100.00
8051;BME280;4068;42.158;24.732;2023-04-29T04:40:51;99903.19;;;8.50;100.00
8051;BME280;4068;42.158;24.732;2023-04-29T04:43:17;99894.94;;;8.54;100.00
8051;BME280;4068;42.158;24.732;2023-04-29T04:45:43;99891.47;;;8.54;100.00
8051;BME280;4068;42.158;24.732;2023-04-29T04:48:08;99908.91;;;8.56;100.00
8051;BME280;4068;42.158;24.732;2023-04-29T04:50:33;99907.22;;;8.55;100.00
8051;BME280;4068;42.158;24.732;2023-04-29T04:52:59;99917.81;;;8.55;100.00
8051;BME280;4068;42.158;24.732;2023-04-29T04:55:25;99919.94;;;8.63;100.00
8051;BME280;4068;42.158;24.732;2023-04-29T04:57:50;99906.91;;;8.60;100.00
8051;BME280;4068;42.158;24.732;2023-04-29T05:00:16;99906.00;;;8.74;100.00
8051;BME280;4068;42.158;24.732;2023-04-29T05:02:41;99900.41;;;8.78;99.53
8051;BME280;4068;42.158;24.732;2023-04-29T05:05:07;99919.88;;;9.03;99.16
8051;BME280;4068;42.158;24.732;2023-04-29T05:07:33;99923.91;;;9.09;98.63
8051;BME280;4068;42.158;24.732;2023-04-29T05:10:02;99906.66;;;9.16;98.12
8051;BME280;4068;42.158;24.732;2023-04-29T05:12:28;99916.19;;;9.31;98.26
8051;BME280;4068;42.158;24.732;2023-04-29T05:14:55;99917.88;;;9.45;98.07
8051;BME280;4068;42.158;24.732;2023-04-29T05:17:21;99914.41;;;9.32;96.81
8051;BME280;4068;42.158;24.732;2023-04-29T05:19:46;99922.00;;;9.49;96.87
8051;BME280;4068;42.158;24.732;2023-04-29T05:22:12;99915.13;;;9.60;95.89
8051;BME280;4068;42.158;24.732;2023-04-29T05:24:37;99916.19;;;9.44;95.59
8051;BME280;4068;42.158;24.732;2023-04-29T05:27:02;99894.06;;;9.45;95.80
8051;BME280;4068;42.158;24.732;2023-04-29T05:29:29;99900.94;;;9.48;95.68
8051;BME280;4068;42.158;24.732;2023-04-29T05:31:55;99905.69;;;9.56;95.19
8051;BME280;4068;42.158;24.732;2023-04-29T05:34:20;99901.16;;;9.45;96.27
8051;BME280;4068;42.158;24.732;2023-04-29T05:36:46;99896.28;;;9.52;96.19
8051;BME280;4068;42.158;24.732;2023-04-29T05:39:11;99891.28;;;9.60;96.19
8051;BME280;4068;42.158;24.732;2023-04-29T05:41:36;99889.16;;;9.65;96.38
8051;BME280;4068;42.158;24.732;2023-04-29T05:44:02;99889.25;;;9.76;96.72
8051;BME280;4068;42.158;24.732;2023-04-29T05:46:27;99886.16;;;9.82;97.20
8051;BME280;4068;42.158;24.732;2023-04-29T05:48:53;99890.34;;;9.98;95.73
8051;BME280;4068;42.158;24.732;2023-04-29T05:51:18;99892.59;;;10.15;91.99
8051;BME280;4068;42.158;24.732;2023-04-29T05:53:44;99876.38;;;10.44;90.96
8051;BME280;4068;42.158;24.732;2023-04-29T05:56:09;99886.25;;;10.78;90.91
8051;BME280;4068;42.158;24.732;2023-04-29T05:58:35;99882.72;;;11.24;89.00
8051;BME280;4068;42.158;24.732;2023-04-29T06:01:00;99863.31;;;11.35;85.45
8051;BME280;4068;42.158;24.732;2023-04-29T06:03:26;99878.19;;;11.92;84.00
8051;BME280;4068;42.158;24.732;2023-04-29T06:05:52;99874.44;;;12.50;82.34
8051;BME280;4068;42.158;24.732;2023-04-29T06:08:18;99870.72;;;13.05;80.72
8051;BME280;4068;42.158;24.732;2023-04-29T06:10:43;99858.16;;;13.38;77.68
8051;BME280;4068;42.158;24.732;2023-04-29T06:13:10;99869.84;;;13.46;76.04
8051;BME280;4068;42.158;24.732;2023-04-29T06:15:35;99848.28;;;13.50;77.07
8051;BME280;4068;42.158;24.732;2023-04-29T06:18:01;99861.19;;;13.54;76.29
8051;BME280;4068;42.158;24.732;2023-04-29T06:20:26;99857.66;;;13.44;76.28
8051;BME280;4068;42.158;24.732;2023-04-29T06:22:52;99850.63;;;13.43;77.27
8051;BME280;4068;42.158;24.732;2023-04-29T06:25:17;99858.25;;;13.57;76.96
8051;BME280;4068;42.158;24.732;2023-04-29T06:27:43;99843.38;;;13.34;76.27
8051;BME280;4068;42.158;24.732;2023-04-29T06:30:08;99820.75;;;13.08;78.17
8051;BME280;4068;42.158;24.732;2023-04-29T06:32:34;99833.19;;;13.08;79.54
8051;BME280;4068;42.158;24.732;2023-04-29T06:34:59;99852.25;;;13.34;79.51
8051;BME280;4068;42.158;24.732;2023-04-29T06:37:25;99829.50;;;13.30;79.46
8051;BME280;4068;42.158;24.732;2023-04-29T06:39:51;99845.72;;;13.48;78.80
8051;BME280;4068;42.158;24.732;2023-04-29T06:42:16;99836.94;;;13.57;76.43
8051;BME280;4068;42.158;24.732;2023-04-29T06:44:42;99844.38;;;13.63;75.91
8051;BME280;4068;42.158;24.732;2023-04-29T06:47:08;99849.69;;;13.63;75.86
8051;BME280;4068;42.158;24.732;2023-04-29T06:49:33;99833.59;;;13.75;72.07
8051;BME280;4068;42.158;24.732;2023-04-29T06:51:59;99850.19;;;13.88;70.77
8051;BME280;4068;42.158;24.732;2023-04-29T06:54:26;99838.16;;;13.94;69.98
8051;BME280;4068;42.158;24.732;2023-04-29T06:56:52;99827.34;;;13.95;70.49
8051;BME280;4068;42.158;24.732;2023-04-29T06:59:18;99825.63;;;13.94;68.55
8051;BME280;4068;42.158;24.732;2023-04-29T07:01:43;99828.19;;;14.06;68.09
8051;BME280;4068;42.158;24.732;2023-04-29T07:04:09;99796.75;;;14.00;68.05
8051;BME280;4068;42.158;24.732;2023-04-29T07:06:35;99816.97;;;14.41;66.72
8051;BME280;4068;42.158;24.732;2023-04-29T07:09:01;99780.44;;;14.42;66.19
8051;BME280;4068;42.158;24.732;2023-04-29T07:11:26;99812.41;;;14.91;64.54
8051;BME280;4068;42.158;24.732;2023-04-29T07:13:52;99802.66;;;15.09;62.33
8051;BME280;4068;42.158;24.732;2023-04-29T07:16:18;99796.16;;;15.12;61.16
8051;BME280;4068;42.158;24.732;2023-04-29T07:18:46;99790.72;;;15.31;59.83
8051;BME280;4068;42.158;24.732;2023-04-29T07:21:12;99815.09;;;14.91;61.40
8051;BME280;4068;42.158;24.732;2023-04-29T07:23:37;99792.94;;;15.08;60.98
8051;BME280;4068;42.158;24.732;2023-04-29T07:26:14;99809.34;;;15.51;59.81
8051;BME280;4068;42.158;24.732;2023-04-29T07:28:43;99805.53;;;15.26;59.46
8051;BME280;4068;42.158;24.732;2023-04-29T07:31:09;99818.28;;;15.60;59.04
8051;BME280;4068;42.158;24.732;2023-04-29T07:33:35;99818.09;;;15.43;58.04
8051;BME280;4068;42.158;24.732;2023-04-29T07:36:01;99813.25;;;15.57;59.08
8051;BME280;4068;42.158;24.732;2023-04-29T07:38:27;99809.97;;;15.63;57.77
8051;BME280;4068;42.158;24.732;2023-04-29T07:40:54;99793.50;;;15.40;57.67
8051;BME280;4068;42.158;24.732;2023-04-29T07:43:19;99810.19;;;15.51;57.69
8051;BME280;4068;42.158;24.732;2023-04-29T07:45:44;99806.53;;;15.52;57.29
8051;BME280;4068;42.158;24.732;2023-04-29T07:48:10;99787.25;;;15.49;57.13
8051;BME280;4068;42.158;24.732;2023-04-29T07:50:36;99733.16;;;14.81;57.35
8051;BME280;4068;42.158;24.732;2023-04-29T07:53:02;99774.69;;;15.04;58.17
8051;BME280;4068;42.158;24.732;2023-04-29T07:55:28;99792.19;;;15.16;59.30
8051;BME280;4068;42.158;24.732;2023-04-29T07:57:55;99796.47;;;15.36;58.97
8051;BME280;4068;42.158;24.732;2023-04-29T08:00:21;99795.72;;;15.16;59.45
8051;BME280;4068;42.158;24.732;2023-04-29T08:02:54;99787.34;;;15.01;59.17
8051;BME280;4068;42.158;24.732;2023-04-29T08:05:20;99790.50;;;14.87;59.56
8051;BME280;4068;42.158;24.732;2023-04-29T08:07:47;99756.97;;;15.02;60.67
8051;BME280;4068;42.158;24.732;2023-04-29T08:10:13;99773.81;;;15.41;59.64
8051;BME280;4068;42.158;24.732;2023-04-29T08:12:38;99779.75;;;15.34;57.92
8051;BME280;4068;42.158;24.732;2023-04-29T08:15:04;99771.41;;;15.38;57.84
8051;BME280;4068;42.158;24.732;2023-04-29T08:17:30;99753.38;;;15.22;57.65
8051;BME280;4068;42.158;24.732;2023-04-29T08:19:55;99776.09;;;15.35;57.87
8051;BME280;4068;42.158;24.732;2023-04-29T08:22:20;99748.06;;;15.12;57.72
8051;BME280;4068;42.158;24.732;2023-04-29T08:24:46;99765.19;;;15.19;58.89
8051;BME280;4068;42.158;24.732;2023-04-29T08:27:13;99757.47;;;15.44;58.56
8051;BME280;4068;42.158;24.732;2023-04-29T08:29:39;99762.25;;;15.68;58.00
8051;BME280;4068;42.158;24.732;2023-04-29T08:32:05;99754.50;;;15.93;57.43
8051;BME280;4068;42.158;24.732;2023-04-29T08:34:30;99761.28;;;15.87;56.57
8051;BME280;4068;42.158;24.732;2023-04-29T08:36:57;99756.63;;;16.07;56.30
8051;BME280;4068;42.158;24.732;2023-04-29T08:39:23;99755.31;;;16.29;56.12
8051;BME280;4068;42.158;24.732;2023-04-29T08:41:48;99756.28;;;16.46;54.72
8051;BME280;4068;42.158;24.732;2023-04-29T08:44:16;99751.81;;;16.55;54.73
8051;BME280;4068;42.158;24.732;2023-04-29T08:46:45;99746.53;;;16.63;54.05
8051;BME280;4068;42.158;24.732;2023-04-29T08:49:11;99735.53;;;16.74;53.65
8051;BME280;4068;42.158;24.732;2023-04-29T08:51:37;99716.47;;;16.78;54.54
8051;BME280;4068;42.158;24.732;2023-04-29T08:54:03;99716.69;;;17.19;54.05
8051;BME280;4068;42.158;24.732;2023-04-29T08:56:29;99723.44;;;17.39;50.84
8051;BME280;4068;42.158;24.732;2023-04-29T08:58:56;99722.22;;;17.17;50.63
8051;BME280;4068;42.158;24.732;2023-04-29T09:01:26;99724.94;;;17.34;50.57
8051;BME280;4068;42.158;24.732;2023-04-29T09:06:29;99717.25;;;17.47;50.59
8051;BME280;4068;42.158;24.732;2023-04-29T09:08:58;99721.81;;;17.63;49.92
8051;BME280;4068;42.158;24.732;2023-04-29T09:11:24;99713.28;;;17.76;49.81
8051;BME280;4068;42.158;24.732;2023-04-29T09:13:51;99706.06;;;17.68;49.29
8051;BME280;4068;42.158;24.732;2023-04-29T09:16:22;99713.56;;;17.48;49.05
8051;BME280;4068;42.158;24.732;2023-04-29T09:18:49;99712.97;;;17.12;49.95
8051;BME280;4068;42.158;24.732;2023-04-29T09:21:26;99704.34;;;16.91;50.20
8051;BME280;4068;42.158;24.732;2023-04-29T09:23:56;99701.03;;;16.98;50.54
8051;BME280;4068;42.158;24.732;2023-04-29T09:26:22;99673.22;;;16.64;49.37
8051;BME280;4068;42.158;24.732;2023-04-29T09:31:30;99678.06;;;16.95;49.28
8051;BME280;4068;42.158;24.732;2023-04-29T09:33:56;99667.25;;;17.13;48.91
8051;BME280;4068;42.158;24.732;2023-04-29T09:36:41;99665.47;;;17.47;49.34
8051;BME280;4068;42.158;24.732;2023-04-29T09:39:08;99664.16;;;17.75;48.56
8051;BME280;4068;42.158;24.732;2023-04-29T09:44:22;99651.09;;;18.22;46.52
8051;BME280;4068;42.158;24.732;2023-04-29T09:49:27;99646.19;;;18.25;44.79
8051;BME280;4068;42.158;24.732;2023-04-29T09:51:57;99641.47;;;18.44;43.66
8051;BME280;4068;42.158;24.732;2023-04-29T09:54:24;99650.19;;;18.46;43.89
8051;BME280;4068;42.158;24.732;2023-04-29T09:56:51;99634.19;;;18.13;44.23
8051;BME280;4068;42.158;24.732;2023-04-29T09:59:18;99618.56;;;18.17;44.75
8051;BME280;4068;42.158;24.732;2023-04-29T10:01:47;99642.59;;;18.66;44.53
8051;BME280;4068;42.158;24.732;2023-04-29T10:04:14;99625.63;;;18.66;44.47
8051;BME280;4068;42.158;24.732;2023-04-29T10:06:40;99619.63;;;18.95;43.40
8051;BME280;4068;42.158;24.732;2023-04-29T10:09:07;99616.00;;;19.11;43.40
8051;BME280;4068;42.158;24.732;2023-04-29T10:11:34;99587.81;;;19.07;42.45
8051;BME280;4068;42.158;24.732;2023-04-29T10:14:02;99592.78;;;19.18;41.84
8051;BME280;4068;42.158;24.732;2023-04-29T10:16:30;99603.72;;;19.17;40.46
8051;BME280;4068;42.158;24.732;2023-04-29T10:18:59;99585.72;;;18.94;40.25
8051;BME280;4068;42.158;24.732;2023-04-29T10:21:29;99578.38;;;18.79;39.02
8051;BME280;4068;42.158;24.732;2023-04-29T10:23:59;99593.69;;;19.10;39.90
8051;BME280;4068;42.158;24.732;2023-04-29T10:26:29;99573.81;;;19.20;38.67
8051;BME280;4068;42.158;24.732;2023-04-29T10:28:56;99570.88;;;19.29;37.72
8051;BME280;4068;42.158;24.732;2023-04-29T10:31:27;99582.75;;;19.35;37.74
8051;BME280;4068;42.158;24.732;2023-04-29T10:33:55;99566.88;;;19.48;37.37
8051;BME280;4068;42.158;24.732;2023-04-29T10:36:21;99582.03;;;19.64;35.88
8051;BME280;4068;42.158;24.732;2023-04-29T10:38:50;99582.13;;;19.94;35.91
8051;BME280;4068;42.158;24.732;2023-04-29T10:41:26;99567.19;;;20.22;35.61
8051;BME280;4068;42.158;24.732;2023-04-29T10:43:53;99583.69;;;20.78;34.96
8051;BME280;4068;42.158;24.732;2023-04-29T10:46:21;99576.56;;;21.07;34.27
8051;BME280;4068;42.158;24.732;2023-04-29T10:48:49;99573.16;;;21.42;33.76
8051;BME280;4068;42.158;24.732;2023-04-29T10:54:08;99563.22;;;21.64;32.50
8051;BME280;4068;42.158;24.732;2023-04-29T10:56:38;99560.78;;;22.04;31.99
8051;BME280;4068;42.158;24.732;2023-04-29T10:59:04;99557.78;;;22.20;31.95
8051;BME280;4068;42.158;24.732;2023-04-29T11:01:41;99545.56;;;22.73;31.68
8051;BME280;4068;42.158;24.732;2023-04-29T11:04:07;99528.13;;;22.82;31.28
8051;BME280;4068;42.158;24.732;2023-04-29T11:09:07;99549.03;;;22.53;31.46
8051;BME280;4068;42.158;24.732;2023-04-29T11:11:58;99519.84;;;22.90;31.38
8051;BME280;4068;42.158;24.732;2023-04-29T11:16:58;99534.28;;;23.24;30.40
8051;BME280;4068;42.158;24.732;2023-04-29T11:19:30;99522.41;;;23.32;28.99
8051;BME280;4068;42.158;24.732;2023-04-29T11:22:07;99495.75;;;23.16;28.75
8051;BME280;4068;42.158;24.732;2023-04-29T11:24:33;99514.31;;;23.19;29.49
8051;BME280;4068;42.158;24.732;2023-04-29T11:27:01;99512.22;;;23.48;29.33
8051;BME280;4068;42.158;24.732;2023-04-29T11:29:31;99515.50;;;23.09;30.81
8051;BME280;4068;42.158;24.732;2023-04-29T11:31:59;99489.34;;;22.41;29.94
8051;BME280;4068;42.158;24.732;2023-04-29T11:34:25;99503.56;;;22.64;30.37
8051;BME280;4068;42.158;24.732;2023-04-29T11:36:52;99504.69;;;22.96;30.41
8051;BME280;4068;42.158;24.732;2023-04-29T11:39:17;99498.63;;;22.81;30.22
8051;BME280;4068;42.158;24.732;2023-04-29T11:41:43;99500.69;;;22.85;29.67
8051;BME280;4068;42.158;24.732;2023-04-29T11:44:10;99497.16;;;22.85;29.57
8051;BME280;4068;42.158;24.732;2023-04-29T11:46:36;99495.28;;;22.72;29.08
8051;BME280;4068;42.158;24.732;2023-04-29T11:49:01;99492.56;;;22.79;28.91
8051;BME280;4068;42.158;24.732;2023-04-29T11:51:27;99488.41;;;22.76;29.20
8051;BME280;4068;42.158;24.732;2023-04-29T11:53:53;99489.66;;;22.80;28.88
8051;BME280;4068;42.158;24.732;2023-04-29T11:56:22;99475.97;;;23.02;28.91
8051;BME280;4068;42.158;24.732;2023-04-29T11:58:54;99477.06;;;23.21;28.69
8051;BME280;4068;42.158;24.732;2023-04-29T12:01:21;99469.75;;;23.55;27.67
8051;BME280;4068;42.158;24.732;2023-04-29T12:03:48;99457.44;;;23.72;27.29
8051;BME280;4068;42.158;24.732;2023-04-29T12:06:14;99442.91;;;24.25;27.62
8051;BME280;4068;42.158;24.732;2023-04-29T12:08:40;99463.75;;;24.32;26.42
8051;BME280;4068;42.158;24.732;2023-04-29T12:11:06;99445.38;;;24.34;26.19
8051;BME280;4068;42.158;24.732;2023-04-29T12:13:32;99449.66;;;24.61;25.38
8051;BME280;4068;42.158;24.732;2023-04-29T12:16:00;99430.28;;;24.90;25.41
8051;BME280;4068;42.158;24.732;2023-04-29T12:18:25;99410.16;;;24.97;26.34
8051;BME280;4068;42.158;24.732;2023-04-29T12:20:52;99415.78;;;24.71;25.27
8051;BME280;4068;42.158;24.732;2023-04-29T12:23:21;99426.25;;;24.92;25.39
8051;BME280;4068;42.158;24.732;2023-04-29T12:28:16;99417.00;;;24.75;25.09
8051;BME280;4068;42.158;24.732;2023-04-29T12:30:49;99419.72;;;24.75;25.37
8051;BME280;4068;42.158;24.732;2023-04-29T12:33:25;99429.78;;;24.22;25.89
8051;BME280;4068;42.158;24.732;2023-04-29T12:35:56;99395.97;;;23.79;26.52
8051;BME280;4068;42.158;24.732;2023-04-29T12:38:24;99416.16;;;23.84;26.21
8051;BME280;4068;42.158;24.732;2023-04-29T12:40:58;99426.25;;;23.63;27.35
8051;BME280;4068;42.158;24.732;2023-04-29T12:43:28;99417.97;;;23.18;27.40
8051;BME280;4068;42.158;24.732;2023-04-29T12:46:00;99413.34;;;23.52;27.66
8051;BME280;4068;42.158;24.732;2023-04-29T12:48:30;99409.56;;;23.73;27.66
8051;BME280;4068;42.158;24.732;2023-04-29T12:50:56;99389.38;;;23.69;27.46
8051;BME280;4068;42.158;24.732;2023-04-29T12:53:24;99407.66;;;23.80;28.30
8051;BME280;4068;42.158;24.732;2023-04-29T12:55:50;99410.69;;;24.10;27.02
8051;BME280;4068;42.158;24.732;2023-04-29T12:58:16;99392.72;;;24.23;26.38
8051;BME280;4068;42.158;24.732;2023-04-29T13:00:41;99394.94;;;24.33;26.48
8051;BME280;4068;42.158;24.732;2023-04-29T13:03:07;99377.09;;;24.18;26.66
8051;BME280;4068;42.158;24.732;2023-04-29T13:05:32;99388.78;;;24.51;25.91
8051;BME280;4068;42.158;24.732;2023-04-29T13:07:58;99387.00;;;24.38;26.60
8051;BME280;4068;42.158;24.732;2023-04-29T13:10:23;99377.16;;;24.43;26.49
8051;BME280;4068;42.158;24.732;2023-04-29T13:12:49;99384.50;;;23.91;27.66
8051;BME280;4068;42.158;24.732;2023-04-29T13:15:14;99387.22;;;23.98;27.61
8051;BME280;4068;42.158;24.732;2023-04-29T13:17:40;99367.00;;;23.93;27.62
8051;BME280;4068;42.158;24.732;2023-04-29T13:20:06;99368.38;;;24.09;27.55
8051;BME280;4068;42.158;24.732;2023-04-29T13:22:32;99373.78;;;24.16;27.32
8051;BME280;4068;42.158;24.732;2023-04-29T13:24:58;99377.97;;;24.12;27.45
8051;BME280;4068;42.158;24.732;2023-04-29T13:27:23;99360.16;;;23.91;27.53
8051;BME280;4068;42.158;24.732;2023-04-29T13:29:51;99367.41;;;23.25;27.41
8051;BME280;4068;42.158;24.732;2023-04-29T13:32:17;99359.06;;;22.80;28.05
8051;BME280;4068;42.158;24.732;2023-04-29T13:34:45;99359.91;;;22.67;28.23
8051;BME280;4068;42.158;24.732;2023-04-29T13:37:11;99332.66;;;22.62;28.63